sensor_id;sensor_type;location;lat;lon;timestamp;P1;durP1;ratioP1;P2;durP2;ratioP2
41293;SDS011;27037;52.010;4.446;2024-03-08T00:01:59;54.75;;;27.25;;
41293;SDS011;27037;52.010;4.446;2024-03-08T00:04:25;51.40;;;26.50;;
41293;SDS011;27037;52.010;4.446;2024-03-08T00:06:50;57.45;;;27.65;;
41293;SDS011;27037;52.010;4.446;2024-03-08T00:09:16;57.75;;;26.52;;
41293;SDS011;27037;52.010;4.446;2024-03-08T00:11:42;57.05;;;25.92;;
41293;SDS011;27037;52.010;4.446;2024-03-08T00:14:07;55.97;;;26.50;;
41293;SDS011;27037;52.010;4.446;2024-03-08T00:16:33;54.80;;;26.92;;
41293;SDS011;27037;52.010;4.446;2024-03-08T00:19:00;57.47;;;26.40;;
41293;SDS011;27037;52.010;4.446;2024-03-08T00:21:26;54.42;;;26.60;;
41293;SDS011;27037;52.010;4.446;2024-03-08T00:23:54;57.33;;;26.77;;
41293;SDS011;27037;52.010;4.446;2024-03-08T00:26:20;55.20;;;26.45;;
41293;SDS011;27037;52.010;4.446;2024-03-08T00:28:47;52.50;;;26.40;;
41293;SDS011;27037;52.010;4.446;2024-03-08T00:31:13;55.15;;;26.65;;
41293;SDS011;27037;52.010;4.446;2024-03-08T00:33:41;59.10;;;27.15;;
41293;SDS011;27037;52.010;4.446;2024-03-08T00:36:07;55.92;;;27.42;;
41293;SDS011;27037;52.010;4.446;2024-03-08T00:38:33;58.85;;;27.25;;
41293;SDS011;27037;52.010;4.446;2024-03-08T00:40:59;54.13;;;26.65;;
41293;SDS011;27037;52.010;4.446;2024-03-08T00:43:25;53.33;;;25.80;;
41293;SDS011;27037;52.010;4.446;2024-03-08T00:45:51;53.45;;;27.33;;
41293;SDS011;27037;52.010;4.446;2024-03-08T00:48:16;52.33;;;25.45;;
41293;SDS011;27037;52.010;4.446;2024-03-08T00:50:42;52.47;;;26.48;;
41293;SDS011;27037;52.010;4.446;2024-03-08T00:53:10;55.80;;;26.35;;
41293;SDS011;27037;52.010;4.446;2024-03-08T00:55:39;58.35;;;26.92;;
41293;SDS011;27037;52.010;4.446;2024-03-08T00:58:04;52.40;;;25.85;;
41293;SDS011;27037;52.010;4.446;2024-03-08T01:00:30;53.85;;;26.55;;
41293;SDS011;27037;52.010;4.446;2024-03-08T01:02:56;56.72;;;27.25;;
41293;SDS011;27037;52.010;4.446;2024-03-08T01:05:21;58.75;;;27.58;;
41293;SDS011;27037;52.010;4.446;2024-03-08T01:07:49;54.67;;;26.77;;
41293;SDS011;27037;52.010;4.446;2024-03-08T01:10:15;52.65;;;27.42;;
41293;SDS011;27037;52.010;4.446;2024-03-08T01:12:40;53.45;;;26.02;;
41293;SDS011;27037;52.010;4.446;2024-03-08T01:15:08;60.60;;;27.13;;
41293;SDS011;27037;52.010;4.446;2024-03-08T01:17:35;57.65;;;26.85;;
41293;SDS011;27037;52.010;4.446;2024-03-08T01:20:01;51.58;;;26.83;;
41293;SDS011;27037;52.010;4.446;2024-03-08T01:22:27;58.08;;;26.92;;
41293;SDS011;27037;52.010;4.446;2024-03-08T01:24:54;55.10;;;26.95;;
41293;SDS011;27037;52.010;4.446;2024-03-08T01:27:20;52.65;;;27.10;;
41293;SDS011;27037;52.010;4.446;2024-03-08T01:29:46;51.92;;;26.67;;
41293;SDS011;27037;52.010;4.446;2024-03-08T01:32:12;52.35;;;26.70;;
41293;SDS011;27037;52.010;4.446;2024-03-08T01:34:37;53.83;;;25.52;;
41293;SDS011;27037;52.010;4.446;2024-03-08T01:37:03;54.47;;;27.65;;
41293;SDS011;27037;52.010;4.446;2024-03-08T01:39:28;58.05;;;27.40;;
41293;SDS011;27037;52.010;4.446;2024-03-08T01:41:54;57.08;;;26.45;;
41293;SDS011;27037;52.010;4.446;2024-03-08T01:44:20;53.08;;;26.65;;
41293;SDS011;27037;52.010;4.446;2024-03-08T01:46:46;54.78;;;26.85;;
41293;SDS011;27037;52.010;4.446;2024-03-08T01:49:12;54.70;;;26.00;;
41293;SDS011;27037;52.010;4.446;2024-03-08T01:51:39;54.08;;;26.73;;
41293;SDS011;27037;52.010;4.446;2024-03-08T01:54:06;51.90;;;27.02;;
41293;SDS011;27037;52.010;4.446;2024-03-08T01:56:34;56.25;;;27.80;;
41293;SDS011;27037;52.010;4.446;2024-03-08T01:59:02;49.60;;;26.17;;
41293;SDS011;27037;52.010;4.446;2024-03-08T02:01:28;54.83;;;26.90;;
41293;SDS011;27037;52.010;4.446;2024-03-08T02:03:54;50.78;;;25.65;;
41293;SDS011;27037;52.010;4.446;2024-03-08T02:06:20;54.08;;;26.60;;
41293;SDS011;27037;52.010;4.446;2024-03-08T02:08:45;51.58;;;26.05;;
41293;SDS011;27037;52.010;4.446;2024-03-08T02:11:12;51.55;;;26.30;;
41293;SDS011;27037;52.010;4.446;2024-03-08T02:13:38;52.90;;;26.23;;
41293;SDS011;27037;52.010;4.446;2024-03-08T02:16:03;51.83;;;26.17;;
41293;SDS011;27037;52.010;4.446;2024-03-08T02:18:32;53.80;;;27.38;;
41293;SDS011;27037;52.010;4.446;2024-03-08T02:21:04;54.28;;;26.48;;
41293;SDS011;27037;52.010;4.446;2024-03-08T02:23:31;53.88;;;26.80;;
41293;SDS011;27037;52.010;4.446;2024-03-08T02:25:57;53.50;;;26.75;;
41293;SDS011;27037;52.010;4.446;2024-03-08T02:28:23;55.42;;;26.55;;
41293;SDS011;27037;52.010;4.446;2024-03-08T02:30:53;54.78;;;27.88;;
41293;SDS011;27037;52.010;4.446;2024-03-08T02:33:20;57.03;;;26.70;;
41293;SDS011;27037;52.010;4.446;2024-03-08T02:35:47;51.00;;;26.48;;
41293;SDS011;27037;52.010;4.446;2024-03-08T02:38:14;51.42;;;26.42;;
41293;SDS011;27037;52.010;4.446;2024-03-08T02:40:47;52.72;;;27.00;;
41293;SDS011;27037;52.010;4.446;2024-03-08T02:43:14;54.75;;;26.40;;
41293;SDS011;27037;52.010;4.446;2024-03-08T02:45:40;49.45;;;25.35;;
41293;SDS011;27037;52.010;4.446;2024-03-08T02:48:10;51.75;;;27.23;;
41293;SDS011;27037;52.010;4.446;2024-03-08T02:50:37;50.38;;;25.98;;
41293;SDS011;27037;52.010;4.446;2024-03-08T02:53:04;52.40;;;26.70;;
41293;SDS011;27037;52.010;4.446;2024-03-08T02:55:30;55.80;;;27.38;;
41293;SDS011;27037;52.010;4.446;2024-03-08T02:57:56;52.13;;;26.88;;
41293;SDS011;27037;52.010;4.446;2024-03-08T03:00:22;48.20;;;25.90;;
41293;SDS011;27037;52.010;4.446;2024-03-08T03:02:51;52.92;;;27.15;;
41293;SDS011;27037;52.010;4.446;2024-03-08T03:05:19;52.08;;;28.23;;
41293;SDS011;27037;52.010;4.446;2024-03-08T03:07:45;51.72;;;27.67;;
41293;SDS011;27037;52.010;4.446;2024-03-08T03:10:11;54.70;;;27.58;;
41293;SDS011;27037;52.010;4.446;2024-03-08T03:12:37;58.00;;;27.85;;
41293;SDS011;27037;52.010;4.446;2024-03-08T03:15:03;51.88;;;26.98;;
41293;SDS011;27037;52.010;4.446;2024-03-08T03:17:29;51.60;;;26.60;;
41293;SDS011;27037;52.010;4.446;2024-03-08T03:19:55;52.72;;;27.33;;
41293;SDS011;27037;52.010;4.446;2024-03-08T03:22:20;49.03;;;26.73;;
41293;SDS011;27037;52.010;4.446;2024-03-08T03:24:46;52.95;;;27.23;;
41293;SDS011;27037;52.010;4.446;2024-03-08T03:27:15;50.58;;;25.50;;
41293;SDS011;27037;52.010;4.446;2024-03-08T03:29:41;53.30;;;27.35;;
41293;SDS011;27037;52.010;4.446;2024-03-08T03:32:10;51.28;;;27.10;;
41293;SDS011;27037;52.010;4.446;2024-03-08T03:34:37;57.35;;;28.55;;
41293;SDS011;27037;52.010;4.446;2024-03-08T03:37:03;51.72;;;27.70;;
41293;SDS011;27037;52.010;4.446;2024-03-08T03:39:29;54.63;;;27.77;;
41293;SDS011;27037;52.010;4.446;2024-03-08T03:41:59;51.72;;;27.00;;
41293;SDS011;27037;52.010;4.446;2024-03-08T03:44:27;53.70;;;26.95;;
41293;SDS011;27037;52.010;4.446;2024-03-08T03:46:53;55.38;;;27.45;;
41293;SDS011;27037;52.010;4.446;2024-03-08T03:49:18;52.08;;;28.10;;
41293;SDS011;27037;52.010;4.446;2024-03-08T03:51:44;55.28;;;27.40;;
41293;SDS011;27037;52.010;4.446;2024-03-08T03:54:10;48.97;;;27.77;;
41293;SDS011;27037;52.010;4.446;2024-03-08T03:56:36;56.20;;;28.83;;
41293;SDS011;27037;52.010;4.446;2024-03-08T03:59:02;51.50;;;27.48;;
41293;SDS011;27037;52.010;4.446;2024-03-08T04:01:27;49.25;;;27.35;;
41293;SDS011;27037;52.010;4.446;2024-03-08T04:03:54;50.72;;;27.27;;
41293;SDS011;27037;52.010;4.446;2024-03-08T04:06:20;51.83;;;27.67;;
41293;SDS011;27037;52.010;4.446;2024-03-08T04:08:45;52.72;;;28.77;;
41293;SDS011;27037;52.010;4.446;2024-03-08T04:11:11;48.97;;;28.45;;
41293;SDS011;27037;52.010;4.446;2024-03-08T04:13:36;52.05;;;27.40;;
41293;SDS011;27037;52.010;4.446;2024-03-08T04:16:02;56.33;;;28.70;;
41293;SDS011;27037;52.010;4.446;2024-03-08T04:18:32;56.15;;;28.40;;
41293;SDS011;27037;52.010;4.446;2024-03-08T04:21:00;56.17;;;29.23;;
41293;SDS011;27037;52.010;4.446;2024-03-08T04:23:27;54.13;;;29.80;;
41293;SDS011;27037;52.010;4.446;2024-03-08T04:25:53;53.88;;;28.23;;
41293;SDS011;27037;52.010;4.446;2024-03-08T04:28:19;54.15;;;29.05;;
41293;SDS011;27037;52.010;4.446;2024-03-08T04:30:44;53.92;;;28.60;;
41293;SDS011;27037;52.010;4.446;2024-03-08T04:33:11;53.55;;;29.45;;
41293;SDS011;27037;52.010;4.446;2024-03-08T04:35:36;54.38;;;28.75;;
41293;SDS011;27037;52.010;4.446;2024-03-08T04:38:02;53.47;;;29.10;;
41293;SDS011;27037;52.010;4.446;2024-03-08T04:40:30;59.50;;;30.25;;
41293;SDS011;27037;52.010;4.446;2024-03-08T04:42:56;53.35;;;29.38;;
41293;SDS011;27037;52.010;4.446;2024-03-08T04:45:24;51.95;;;30.45;;
41293;SDS011;27037;52.010;4.446;2024-03-08T04:47:51;58.80;;;30.02;;
41293;SDS011;27037;52.010;4.446;2024-03-08T04:50:17;53.17;;;29.58;;
41293;SDS011;27037;52.010;4.446;2024-03-08T04:52:43;56.08;;;30.42;;
41293;SDS011;27037;52.010;4.446;2024-03-08T04:55:08;55.20;;;29.70;;
41293;SDS011;27037;52.010;4.446;2024-03-08T04:57:34;57.47;;;31.00;;
41293;SDS011;27037;52.010;4.446;2024-03-08T05:00:00;57.20;;;30.42;;
41293;SDS011;27037;52.010;4.446;2024-03-08T05:02:35;54.25;;;30.15;;
41293;SDS011;27037;52.010;4.446;2024-03-08T05:05:01;56.88;;;30.30;;
41293;SDS011;27037;52.010;4.446;2024-03-08T05:07:27;60.17;;;30.73;;
41293;SDS011;27037;52.010;4.446;2024-03-08T05:09:52;55.40;;;29.92;;
41293;SDS011;27037;52.010;4.446;2024-03-08T05:12:18;54.42;;;30.25;;
41293;SDS011;27037;52.010;4.446;2024-03-08T05:14:45;55.22;;;29.98;;
41293;SDS011;27037;52.010;4.446;2024-03-08T05:17:14;57.88;;;29.92;;
41293;SDS011;27037;52.010;4.446;2024-03-08T05:19:40;53.65;;;29.65;;
41293;SDS011;27037;52.010;4.446;2024-03-08T05:22:05;56.25;;;31.38;;
41293;SDS011;27037;52.010;4.446;2024-03-08T05:24:31;57.45;;;30.40;;
41293;SDS011;27037;52.010;4.446;2024-03-08T05:26:57;58.00;;;31.27;;
41293;SDS011;27037;52.010;4.446;2024-03-08T05:29:24;59.63;;;30.17;;
41293;SDS011;27037;52.010;4.446;2024-03-08T05:31:50;57.90;;;30.42;;
41293;SDS011;27037;52.010;4.446;2024-03-08T05:34:19;55.70;;;29.45;;
41293;SDS011;27037;52.010;4.446;2024-03-08T05:36:46;54.22;;;30.65;;
41293;SDS011;27037;52.010;4.446;2024-03-08T05:39:14;56.58;;;31.55;;
41293;SDS011;27037;52.010;4.446;2024-03-08T05:41:40;57.78;;;31.30;;
41293;SDS011;27037;52.010;4.446;2024-03-08T05:44:06;58.45;;;31.70;;
41293;SDS011;27037;52.010;4.446;2024-03-08T05:46:33;57.47;;;31.70;;
41293;SDS011;27037;52.010;4.446;2024-03-08T05:49:00;58.88;;;32.35;;
41293;SDS011;27037;52.010;4.446;2024-03-08T05:51:30;61.53;;;32.80;;
41293;SDS011;27037;52.010;4.446;2024-03-08T05:54:02;59.85;;;31.58;;
41293;SDS011;27037;52.010;4.446;2024-03-08T05:56:30;56.53;;;30.40;;
41293;SDS011;27037;52.010;4.446;2024-03-08T05:58:56;63.92;;;33.90;;
41293;SDS011;27037;52.010;4.446;2024-03-08T06:01:23;62.28;;;32.63;;
41293;SDS011;27037;52.010;4.446;2024-03-08T06:03:52;56.10;;;31.75;;
41293;SDS011;27037;52.010;4.446;2024-03-08T06:06:20;61.35;;;32.95;;
41293;SDS011;27037;52.010;4.446;2024-03-08T06:08:47;58.72;;;30.65;;
41293;SDS011;27037;52.010;4.446;2024-03-08T06:11:14;61.00;;;31.98;;
41293;SDS011;27037;52.010;4.446;2024-03-08T06:13:40;57.30;;;31.92;;
41293;SDS011;27037;52.010;4.446;2024-03-08T06:16:05;59.63;;;31.05;;
41293;SDS011;27037;52.010;4.446;2024-03-08T06:18:33;60.92;;;32.53;;
41293;SDS011;27037;52.010;4.446;2024-03-08T06:21:05;60.20;;;32.60;;
41293;SDS011;27037;52.010;4.446;2024-03-08T06:23:32;58.60;;;32.15;;
41293;SDS011;27037;52.010;4.446;2024-03-08T06:25:58;57.60;;;31.85;;
41293;SDS011;27037;52.010;4.446;2024-03-08T06:28:24;59.67;;;32.72;;
41293;SDS011;27037;52.010;4.446;2024-03-08T06:30:49;59.75;;;32.00;;
41293;SDS011;27037;52.010;4.446;2024-03-08T06:33:16;58.38;;;31.70;;
41293;SDS011;27037;52.010;4.446;2024-03-08T06:35:42;62.20;;;32.90;;
41293;SDS011;27037;52.010;4.446;2024-03-08T06:38:07;59.10;;;32.50;;
41293;SDS011;27037;52.010;4.446;2024-03-08T06:40:33;58.03;;;31.35;;
41293;SDS011;27037;52.010;4.446;2024-03-08T06:42:58;58.92;;;31.48;;
41293;SDS011;27037;52.010;4.446;2024-03-08T06:45:24;61.08;;;33.38;;
41293;SDS011;27037;52.010;4.446;2024-03-08T06:47:50;58.30;;;31.40;;
41293;SDS011;27037;52.010;4.446;2024-03-08T06:50:16;58.17;;;31.42;;
41293;SDS011;27037;52.010;4.446;2024-03-08T06:52:42;57.70;;;31.92;;
41293;SDS011;27037;52.010;4.446;2024-03-08T06:55:09;55.05;;;31.70;;
41293;SDS011;27037;52.010;4.446;2024-03-08T06:57:38;62.88;;;32.83;;
41293;SDS011;27037;52.010;4.446;2024-03-08T07:00:06;58.60;;;32.40;;
41293;SDS011;27037;52.010;4.446;2024-03-08T07:02:36;58.28;;;31.83;;
41293;SDS011;27037;52.010;4.446;2024-03-08T07:05:04;58.90;;;32.33;;
41293;SDS011;27037;52.010;4.446;2024-03-08T07:07:31;62.72;;;32.63;;
41293;SDS011;27037;52.010;4.446;2024-03-08T07:09:57;60.83;;;31.85;;
41293;SDS011;27037;52.010;4.446;2024-03-08T07:12:22;56.45;;;31.75;;
41293;SDS011;27037;52.010;4.446;2024-03-08T07:14:48;59.80;;;30.88;;
41293;SDS011;27037;52.010;4.446;2024-03-08T07:17:14;59.65;;;31.55;;
41293;SDS011;27037;52.010;4.446;2024-03-08T07:19:39;60.40;;;32.20;;
41293;SDS011;27037;52.010;4.446;2024-03-08T07:22:05;63.53;;;32.33;;
41293;SDS011;27037;52.010;4.446;2024-03-08T07:24:34;59.05;;;31.58;;
41293;SDS011;27037;52.010;4.446;2024-03-08T07:27:00;59.22;;;30.58;;
41293;SDS011;27037;52.010;4.446;2024-03-08T07:29:25;57.50;;;31.92;;
41293;SDS011;27037;52.010;4.446;2024-03-08T07:31:51;58.88;;;31.77;;
41293;SDS011;27037;52.010;4.446;2024-03-08T07:34:27;58.85;;;31.95;;
41293;SDS011;27037;52.010;4.446;2024-03-08T07:36:52;58.15;;;32.20;;
41293;SDS011;27037;52.010;4.446;2024-03-08T07:39:18;59.17;;;31.33;;
41293;SDS011;27037;52.010;4.446;2024-03-08T07:41:44;57.25;;;31.27;;
41293;SDS011;27037;52.010;4.446;2024-03-08T07:44:09;54.65;;;30.42;;
41293;SDS011;27037;52.010;4.446;2024-03-08T07:46:35;59.47;;;32.25;;
41293;SDS011;27037;52.010;4.446;2024-03-08T07:49:02;55.38;;;29.77;;
41293;SDS011;27037;52.010;4.446;2024-03-08T07:51:28;58.47;;;30.88;;
41293;SDS011;27037;52.010;4.446;2024-03-08T07:53:54;55.28;;;30.30;;
41293;SDS011;27037;52.010;4.446;2024-03-08T07:56:20;54.53;;;30.85;;
41293;SDS011;27037;52.010;4.446;2024-03-08T07:58:46;59.20;;;30.98;;
41293;SDS011;27037;52.010;4.446;2024-03-08T08:01:19;60.53;;;31.85;;
41293;SDS011;27037;52.010;4.446;2024-03-08T08:03:45;56.00;;;32.20;;
41293;SDS011;27037;52.010;4.446;2024-03-08T08:06:11;55.40;;;30.90;;
41293;SDS011;27037;52.010;4.446;2024-03-08T08:08:43;55.30;;;30.60;;
41293;SDS011;27037;52.010;4.446;2024-03-08T08:11:09;55.35;;;30.00;;
41293;SDS011;27037;52.010;4.446;2024-03-08T08:13:35;52.30;;;29.25;;
41293;SDS011;27037;52.010;4.446;2024-03-08T08:16:01;57.63;;;30.67;;
41293;SDS011;27037;52.010;4.446;2024-03-08T08:18:27;56.53;;;30.40;;
41293;SDS011;27037;52.010;4.446;2024-03-08T08:20:54;54.58;;;29.88;;
41293;SDS011;27037;52.010;4.446;2024-03-08T08:23:20;54.78;;;30.02;;
41293;SDS011;27037;52.010;4.446;2024-03-08T08:25:46;54.22;;;29.80;;
41293;SDS011;27037;52.010;4.446;2024-03-08T08:28:15;55.78;;;30.35;;
41293;SDS011;27037;52.010;4.446;2024-03-08T08:30:42;52.38;;;30.00;;
41293;SDS011;27037;52.010;4.446;2024-03-08T08:33:10;50.80;;;28.98;;
41293;SDS011;27037;52.010;4.446;2024-03-08T08:35:37;53.42;;;30.17;;
41293;SDS011;27037;52.010;4.446;2024-03-08T08:38:03;50.95;;;28.77;;
41293;SDS011;27037;52.010;4.446;2024-03-08T08:40:29;50.50;;;28.90;;
41293;SDS011;27037;52.010;4.446;2024-03-08T08:42:57;51.08;;;29.55;;
41293;SDS011;27037;52.010;4.446;2024-03-08T08:45:23;50.42;;;29.55;;
41293;SDS011;27037;52.010;4.446;2024-03-08T08:47:48;53.05;;;28.60;;
41293;SDS011;27037;52.010;4.446;2024-03-08T08:50:14;52.45;;;29.55;;
41293;SDS011;27037;52.010;4.446;2024-03-08T08:52:41;49.80;;;28.25;;
41293;SDS011;27037;52.010;4.446;2024-03-08T08:55:09;50.28;;;28.48;;
41293;SDS011;27037;52.010;4.446;2024-03-08T08:57:39;47.10;;;28.08;;
41293;SDS011;27037;52.010;4.446;2024-03-08T09:00:05;48.75;;;27.98;;
41293;SDS011;27037;52.010;4.446;2024-03-08T09:02:33;48.75;;;28.60;;
41293;SDS011;27037;52.010;4.446;2024-03-08T09:04:59;50.38;;;28.35;;
41293;SDS011;27037;52.010;4.446;2024-03-08T09:07:26;45.00;;;27.27;;
41293;SDS011;27037;52.010;4.446;2024-03-08T09:09:52;48.28;;;27.42;;
41293;SDS011;27037;52.010;4.446;2024-03-08T09:12:22;50.05;;;28.75;;
41293;SDS011;27037;52.010;4.446;2024-03-08T09:14:48;48.38;;;27.40;;
41293;SDS011;27037;52.010;4.446;2024-03-08T09:17:14;50.08;;;28.02;;
41293;SDS011;27037;52.010;4.446;2024-03-08T09:19:42;47.63;;;27.98;;
41293;SDS011;27037;52.010;4.446;2024-03-08T09:22:08;47.53;;;27.67;;
41293;SDS011;27037;52.010;4.446;2024-03-08T09:24:34;47.67;;;27.77;;
41293;SDS011;27037;52.010;4.446;2024-03-08T09:26:59;46.80;;;27.48;;
41293;SDS011;27037;52.010;4.446;2024-03-08T09:29:25;44.63;;;26.58;;
41293;SDS011;27037;52.010;4.446;2024-03-08T09:31:50;44.45;;;26.92;;
41293;SDS011;27037;52.010;4.446;2024-03-08T09:34:16;45.85;;;27.08;;
41293;SDS011;27037;52.010;4.446;2024-03-08T09:36:43;50.00;;;27.85;;
41293;SDS011;27037;52.010;4.446;2024-03-08T09:39:09;48.03;;;27.40;;
41293;SDS011;27037;52.010;4.446;2024-03-08T09:41:35;44.83;;;26.35;;
41293;SDS011;27037;52.010;4.446;2024-03-08T09:44:01;46.47;;;27.45;;
41293;SDS011;27037;52.010;4.446;2024-03-08T09:46:26;43.35;;;25.90;;
41293;SDS011;27037;52.010;4.446;2024-03-08T09:48:53;44.17;;;26.70;;
41293;SDS011;27037;52.010;4.446;2024-03-08T09:51:21;46.30;;;26.70;;
41293;SDS011;27037;52.010;4.446;2024-03-08T09:53:52;43.38;;;26.70;;
41293;SDS011;27037;52.010;4.446;2024-03-08T09:56:18;41.53;;;26.33;;
41293;SDS011;27037;52.010;4.446;2024-03-08T09:58:45;48.35;;;27.58;;
41293;SDS011;27037;52.010;4.446;2024-03-08T10:01:33;46.97;;;26.58;;
41293;SDS011;27037;52.010;4.446;2024-03-08T10:03:58;43.53;;;26.23;;
41293;SDS011;27037;52.010;4.446;2024-03-08T10:06:24;48.67;;;26.45;;
41293;SDS011;27037;52.010;4.446;2024-03-08T10:08:50;41.70;;;26.08;;
41293;SDS011;27037;52.010;4.446;2024-03-08T10:11:19;43.03;;;25.92;;
41293;SDS011;27037;52.010;4.446;2024-03-08T10:13:45;41.30;;;25.25;;
41293;SDS011;27037;52.010;4.446;2024-03-08T10:16:12;44.40;;;26.20;;
41293;SDS011;27037;52.010;4.446;2024-03-08T10:18:38;45.20;;;26.33;;
41293;SDS011;27037;52.010;4.446;2024-03-08T10:23:31;39.83;;;24.60;;
41293;SDS011;27037;52.010;4.446;2024-03-08T10:25:58;44.47;;;25.48;;
41293;SDS011;27037;52.010;4.446;2024-03-08T10:28:34;40.92;;;24.33;;
41293;SDS011;27037;52.010;4.446;2024-03-08T10:31:00;41.47;;;24.90;;
41293;SDS011;27037;52.010;4.446;2024-03-08T10:33:25;41.17;;;24.40;;
41293;SDS011;27037;52.010;4.446;2024-03-08T10:35:51;38.50;;;25.35;;
41293;SDS011;27037;52.010;4.446;2024-03-08T10:38:18;38.42;;;23.85;;
41293;SDS011;27037;52.010;4.446;2024-03-08T10:40:47;38.53;;;23.10;;
41293;SDS011;27037;52.010;4.446;2024-03-08T10:43:18;40.13;;;23.77;;
41293;SDS011;27037;52.010;4.446;2024-03-08T10:45:50;40.95;;;24.80;;
41293;SDS011;27037;52.010;4.446;2024-03-08T10:48:34;37.53;;;23.80;;
41293;SDS011;27037;52.010;4.446;2024-03-08T10:51:08;36.13;;;22.65;;
41293;SDS011;27037;52.010;4.446;2024-03-08T10:53:36;41.72;;;23.38;;
41293;SDS011;27037;52.010;4.446;2024-03-08T10:56:06;40.65;;;23.55;;
41293;SDS011;27037;52.010;4.446;2024-03-08T10:58:32;36.22;;;23.27;;
41293;SDS011;27037;52.010;4.446;2024-03-08T11:01:00;41.20;;;24.08;;
41293;SDS011;27037;52.010;4.446;2024-03-08T11:06:22;37.70;;;23.15;;
41293;SDS011;27037;52.010;4.446;2024-03-08T11:09:05;39.33;;;22.90;;
41293;SDS011;27037;52.010;4.446;2024-03-08T11:11:39;37.42;;;22.98;;
41293;SDS011;27037;52.010;4.446;2024-03-08T11:14:05;38.67;;;23.20;;
41293;SDS011;27037;52.010;4.446;2024-03-08T11:21:43;34.95;;;21.58;;
41293;SDS011;27037;52.010;4.446;2024-03-08T11:24:12;37.25;;;22.63;;
41293;SDS011;27037;52.010;4.446;2024-03-08T11:26:39;35.17;;;20.95;;
41293;SDS011;27037;52.010;4.446;2024-03-08T11:32:03;35.65;;;22.33;;
41293;SDS011;27037;52.010;4.446;2024-03-08T11:34:40;35.08;;;20.30;;
41293;SDS011;27037;52.010;4.446;2024-03-08T11:37:10;34.00;;;20.75;;
41293;SDS011;27037;52.010;4.446;2024-03-08T11:39:47;32.00;;;20.80;;
41293;SDS011;27037;52.010;4.446;2024-03-08T11:42:17;32.60;;;20.65;;
41293;SDS011;27037;52.010;4.446;2024-03-08T11:44:44;34.92;;;20.88;;
41293;SDS011;27037;52.010;4.446;2024-03-08T11:47:11;33.97;;;20.40;;
41293;SDS011;27037;52.010;4.446;2024-03-08T11:49:37;33.30;;;20.90;;
41293;SDS011;27037;52.010;4.446;2024-03-08T11:52:04;30.80;;;20.38;;
41293;SDS011;27037;52.010;4.446;2024-03-08T11:54:30;33.53;;;21.38;;
41293;SDS011;27037;52.010;4.446;2024-03-08T11:56:59;33.15;;;20.50;;
41293;SDS011;27037;52.010;4.446;2024-03-08T11:59:30;33.53;;;21.52;;
41293;SDS011;27037;52.010;4.446;2024-03-08T12:02:05;33.05;;;21.60;;
41293;SDS011;27037;52.010;4.446;2024-03-08T12:04:31;32.58;;;21.05;;
41293;SDS011;27037;52.010;4.446;2024-03-08T12:07:00;32.35;;;20.70;;
41293;SDS011;27037;52.010;4.446;2024-03-08T12:09:27;35.22;;;21.70;;
41293;SDS011;27037;52.010;4.446;2024-03-08T12:11:53;33.38;;;20.95;;
41293;SDS011;27037;52.010;4.446;2024-03-08T12:14:19;31.23;;;20.73;;
41293;SDS011;27037;52.010;4.446;2024-03-08T12:16:45;34.63;;;21.58;;
41293;SDS011;27037;52.010;4.446;2024-03-08T12:19:11;37.28;;;21.60;;
41293;SDS011;27037;52.010;4.446;2024-03-08T12:21:37;30.75;;;20.08;;
41293;SDS011;27037;52.010;4.446;2024-03-08T12:24:09;32.63;;;21.55;;
41293;SDS011;27037;52.010;4.446;2024-03-08T12:26:35;32.95;;;21.38;;
41293;SDS011;27037;52.010;4.446;2024-03-08T12:29:15;34.30;;;21.20;;
41293;SDS011;27037;52.010;4.446;2024-03-08T12:31:43;34.35;;;21.23;;
41293;SDS011;27037;52.010;4.446;2024-03-08T12:34:09;34.05;;;21.90;;
41293;SDS011;27037;52.010;4.446;2024-03-08T12:36:35;36.72;;;20.42;;
41293;SDS011;27037;52.010;4.446;2024-03-08T12:39:01;33.65;;;20.77;;
41293;SDS011;27037;52.010;4.446;2024-03-08T12:41:29;35.00;;;21.35;;
41293;SDS011;27037;52.010;4.446;2024-03-08T12:43:54;33.47;;;21.55;;
41293;SDS011;27037;52.010;4.446;2024-03-08T12:46:21;32.15;;;20.40;;
41293;SDS011;27037;52.010;4.446;2024-03-08T12:48:47;30.73;;;20.25;;
41293;SDS011;27037;52.010;4.446;2024-03-08T12:51:13;34.15;;;21.25;;
41293;SDS011;27037;52.010;4.446;2024-03-08T12:53:40;36.67;;;21.85;;
41293;SDS011;27037;52.010;4.446;2024-03-08T12:56:09;34.90;;;21.35;;
41293;SDS011;27037;52.010;4.446;2024-03-08T12:58:55;33.17;;;20.88;;
41293;SDS011;27037;52.010;4.446;2024-03-08T13:01:21;31.95;;;20.58;;
41293;SDS011;27037;52.010;4.446;2024-03-08T13:03:47;33.67;;;21.23;;
41293;SDS011;27037;52.010;4.446;2024-03-08T13:06:14;31.35;;;19.50;;
41293;SDS011;27037;52.010;4.446;2024-03-08T13:08:43;32.97;;;20.98;;
41293;SDS011;27037;52.010;4.446;2024-03-08T13:11:09;33.88;;;20.65;;
41293;SDS011;27037;52.010;4.446;2024-03-08T13:13:38;35.08;;;21.55;;
41293;SDS011;27037;52.010;4.446;2024-03-08T13:16:05;35.53;;;20.92;;
41293;SDS011;27037;52.010;4.446;2024-03-08T13:18:33;33.78;;;21.02;;
41293;SDS011;27037;52.010;4.446;2024-03-08T13:21:02;31.73;;;20.50;;
41293;SDS011;27037;52.010;4.446;2024-03-08T13:23:32;34.60;;;21.08;;
41293;SDS011;27037;52.010;4.446;2024-03-08T13:26:04;34.45;;;21.05;;
41293;SDS011;27037;52.010;4.446;2024-03-08T13:28:33;32.08;;;20.42;;
41293;SDS011;27037;52.010;4.446;2024-03-08T13:31:04;32.83;;;20.48;;
41293;SDS011;27037;52.010;4.446;2024-03-08T13:33:35;32.70;;;20.08;;
41293;SDS011;27037;52.010;4.446;2024-03-08T13:36:05;33.08;;;20.40;;
41293;SDS011;27037;52.010;4.446;2024-03-08T13:38:32;30.63;;;19.33;;
41293;SDS011;27037;52.010;4.446;2024-03-08T13:40:58;31.30;;;19.98;;
41293;SDS011;27037;52.010;4.446;2024-03-08T13:43:26;31.52;;;20.58;;
41293;SDS011;27037;52.010;4.446;2024-03-08T13:45:54;29.58;;;19.25;;
41293;SDS011;27037;52.010;4.446;2024-03-08T13:48:22;31.05;;;20.27;;
41293;SDS011;27037;52.010;4.446;2024-03-08T13:50:48;31.77;;;20.48;;
41293;SDS011;27037;52.010;4.446;2024-03-08T13:53:14;34.08;;;20.05;;
41293;SDS011;27037;52.010;4.446;2024-03-08T13:55:40;34.28;;;20.52;;
41293;SDS011;27037;52.010;4.446;2024-03-08T13:58:06;35.20;;;20.75;;
41293;SDS011;27037;52.010;4.446;2024-03-08T14:00:34;30.65;;;19.25;;
41293;SDS011;27037;52.010;4.446;2024-03-08T14:03:01;30.33;;;19.70;;
41293;SDS011;27037;52.010;4.446;2024-03-08T14:05:30;31.48;;;20.15;;
41293;SDS011;27037;52.010;4.446;2024-03-08T14:07:59;31.90;;;19.48;;
41293;SDS011;27037;52.010;4.446;2024-03-08T14:10:28;32.22;;;20.45;;
41293;SDS011;27037;52.010;4.446;2024-03-08T14:12:56;33.00;;;20.60;;
41293;SDS011;27037;52.010;4.446;2024-03-08T14:15:22;33.25;;;21.10;;
41293;SDS011;27037;52.010;4.446;2024-03-08T14:17:54;33.33;;;20.50;;
41293;SDS011;27037;52.010;4.446;2024-03-08T14:20:20;31.45;;;20.33;;
41293;SDS011;27037;52.010;4.446;2024-03-08T14:22:53;31.45;;;19.40;;
41293;SDS011;27037;52.010;4.446;2024-03-08T14:25:21;32.42;;;20.45;;
41293;SDS011;27037;52.010;4.446;2024-03-08T14:27:51;32.45;;;19.67;;
41293;SDS011;27037;52.010;4.446;2024-03-08T14:30:27;30.65;;;20.33;;
41293;SDS011;27037;52.010;4.446;2024-03-08T14:33:03;31.42;;;20.23;;
41293;SDS011;27037;52.010;4.446;2024-03-08T14:35:34;30.35;;;20.10;;